Charleston Air Force Base-International Airport
KCHS : now visible

Airfield :











YOU CAN JOIN US ON...

 
LOGIN :

Register | Disclaimer

   EN    FR    IT 

 









Legend :    VFR   Marginal VFR   IFR   Intensive IFR   Very Intensive IFR
Visi :
Ceiling :
>= 8 km
>= 3000ft
5 to 8 km
1000 to 3000 ft
1500m to 5 km
500 to 1000 ft
800 to 1500m
200 to 500 ft
< 800m
< 200 ft
Symbols :   Thunderstorms  Fog  Heavy snow  Heavy precipitations  Wind > 20 kt







- Airport Elevation : 46 ft
- IATA code : CHS


KCHS - Charleston Air Force Base-International

CURRENT METAR :
  • 202056Z 10012KT 10SM FEW035 SCT045 26/17 A3023 RMK AO2 SLP236 T02610172 56009

EXPIRED METARs :
  • 201956Z 13009KT 10SM SCT035 SCT045 27/17 A3023 RMK AO2 SLP237 T02670172
  • 201856Z 11011KT 10SM SCT035 SCT045 27/18 A3024 RMK AO2 SLP241 T02720178

TAF KCHS
Valid from the 20 at 18:00 until the 21 at 18:00 UTC


201739Z 2018/2118 07008KT P6SM SCT025 BKN045
FM201900 08010G16KT P6SM FEW040
FM202100 10009KT P6SM SCT040
FM210400 06003KT P6SM FEW030
FM211600 08007KT P6SM FEW040
No reported NOTAMs for that airfield.



MET'MAP, your aeronautical weather chart ! - Copyright ORBIFLY December 2007 - Disclaimer

ORBIFLY MET'MAP TEAM :

Programming & Development : Alexandra Zaïnal
Concept & Development : Baudouin d'Aumeries
Co-Development & Prog : Marc-Olivier Méhu
Technical & hardware support : Manuel Goepfert

Contact : metmap@orbifly.com




SOURCES & CREDITS :

   NOAA       Earth
Advisory